Coon Rapids, Iowa
Current Conditions -  °F | °C
As of 10:15 AM on Monday 24 Nov 2014 (Local Time) from KCIN Reporting Station
Overcast Overcast  
Wind Chill:   Ceiling: 2200
Heat Index: 23°   Visibility: 10mi
Dew Point: 16°   Wind: 28mph
Humidity: 74%   Direction: 310°NW
Pressure: 29.61"   Gusts: 35mph
Location:  41.87°N, 94.68°W
Report Text: KCIN 241615Z AUTO 31024G30KT 10SM OVC022 M05/M09 A2961 RMK AO2
Loading
Personal Weather Stations






























Interactive Weather Map New forecast layout! Learn more

10-Day Weather Forecast

Advertisements
Track Severe Weather on mobile